createdAt,value
2023-03-04T00:00:10.583Z,98958.66
2023-03-04T00:03:20.672Z,98963.89
2023-03-04T00:06:32.907Z,98952.89
2023-03-04T00:09:44.785Z,98955.50
2023-03-04T00:12:56.602Z,98939.06
2023-03-04T00:16:11.621Z,98935.76
2023-03-04T00:19:23.573Z,98928.91
2023-03-04T00:22:35.436Z,98933.14
2023-03-04T00:25:43.725Z,98929.59
2023-03-04T00:28:51.514Z,98921.00
2023-03-04T00:32:03.555Z,98915.77
2023-03-04T00:35:16.378Z,98905.25
2023-03-04T00:38:28.385Z,98897.58
2023-03-04T00:41:40.471Z,98899.25
2023-03-04T00:44:53.512Z,98896.42
2023-03-04T00:48:05.417Z,98889.45
2023-03-04T00:51:17.414Z,98883.45
2023-03-04T00:54:29.296Z,98878.91
2023-03-04T00:57:41.745Z,98883.45
2023-03-04T01:00:53.617Z,98856.11
2023-03-04T01:04:05.649Z,98855.72
2023-03-04T01:07:18.229Z,98853.79
2023-03-04T01:10:30.168Z,98838.98
2023-03-04T01:13:42.561Z,98831.06
2023-03-04T01:16:56.416Z,98825.02
2023-03-04T01:20:09.233Z,98831.06
2023-03-04T01:23:21.390Z,98817.09
2023-03-04T01:26:33.433Z,98812.55
2023-03-04T01:29:45.498Z,98815.25
2023-03-04T01:32:57.453Z,98797.73
2023-03-04T01:36:10.084Z,98798.42
2023-03-04T01:39:18.009Z,98804.49
2023-03-04T01:42:32.563Z,98798.24
2023-03-04T01:45:44.762Z,98796.40
2023-03-04T01:48:56.755Z,98785.95
2023-03-04T01:52:08.851Z,98787.74
2023-03-04T01:55:26.191Z,98784.81
2023-03-04T01:58:35.403Z,98782.88
2023-03-04T02:01:49.548Z,98781.88
2023-03-04T02:05:01.534Z,98775.95
2023-03-04T02:08:15.147Z,98782.97
2023-03-04T02:11:27.291Z,98772.58
2023-03-04T02:14:40.059Z,98772.52
2023-03-04T02:17:52.252Z,98757.61
2023-03-04T02:21:12.332Z,98763.73
2023-03-04T02:24:30.677Z,98749.15
2023-03-04T02:27:43.051Z,98763.59
2023-03-04T02:30:55.254Z,98767.88
2023-03-04T02:34:11.204Z,98766.80
2023-03-04T02:37:24.091Z,98759.05
2023-03-04T02:40:40.204Z,98753.82
2023-03-04T02:47:01.492Z,98742.52
2023-03-04T02:50:16.308Z,98729.45
2023-03-04T02:53:29.813Z,98733.68
2023-03-04T02:56:41.748Z,98723.38
2023-03-04T02:59:55.152Z,98710.27
2023-03-04T03:03:05.084Z,98719.68
2023-03-04T03:06:15.075Z,98702.57
2023-03-04T03:09:27.824Z,98700.72
2023-03-04T03:12:41.122Z,98700.72
2023-03-04T03:15:53.679Z,98699.20
2023-03-04T03:19:08.169Z,98705.03
2023-03-04T03:22:21.072Z,98706.80
2023-03-04T03:25:33.115Z,98696.16
2023-03-04T03:28:45.002Z,98690.94
2023-03-04T03:31:57.248Z,98685.72
2023-03-04T03:35:10.684Z,98683.20
2023-03-04T03:38:22.917Z,98688.27
2023-03-04T03:41:34.752Z,98686.56
2023-03-04T03:44:46.630Z,98691.64
2023-03-04T03:47:54.333Z,98694.16
2023-03-04T03:51:06.203Z,98694.26
2023-03-04T03:54:18.122Z,98682.86
2023-03-04T03:57:29.996Z,98689.61
2023-03-04T04:00:42.006Z,98690.55
2023-03-04T04:03:53.973Z,98690.61
2023-03-04T04:07:07.782Z,98694.31
2023-03-04T04:10:20.559Z,98700.39
2023-03-04T04:13:32.521Z,98698.72
2023-03-04T04:16:44.463Z,98687.33
2023-03-04T04:19:56.736Z,98678.73
2023-03-04T04:23:09.253Z,98685.89
2023-03-04T04:26:21.286Z,98677.54
2023-03-04T04:29:33.633Z,98673.41
2023-03-04T04:32:48.066Z,98671.88
2023-03-04T04:36:01.324Z,98672.06
2023-03-04T04:39:13.366Z,98684.59
2023-03-04T04:42:21.032Z,98683.92
2023-03-04T04:45:33.260Z,98677.75
2023-03-04T04:48:40.954Z,98669.11
2023-03-04T04:51:52.804Z,98670.86
2023-03-04T04:55:04.868Z,98663.94
2023-03-04T04:58:16.888Z,98662.09
2023-03-04T05:01:29.622Z,98668.40
2023-03-04T05:04:41.679Z,98670.34
2023-03-04T05:07:53.575Z,98663.45
2023-03-04T05:11:05.736Z,98658.05
2023-03-04T05:14:17.797Z,98653.67
2023-03-04T05:17:30.112Z,98656.95
2023-03-04T05:20:42.043Z,98650.73
2023-03-04T05:23:53.968Z,98636.30
2023-03-04T05:27:06.113Z,98645.66
2023-03-04T05:30:20.339Z,98651.83
2023-03-04T05:33:34.014Z,98645.98
2023-03-04T05:36:45.911Z,98659.05
2023-03-04T05:39:57.812Z,98656.52
2023-03-04T05:46:21.331Z,98643.55
2023-03-04T05:49:29.103Z,98640.19
2023-03-04T05:52:40.988Z,98638.48
2023-03-04T05:55:55.646Z,98640.00
2023-03-04T05:59:07.792Z,98636.72
2023-03-04T06:02:19.979Z,98641.36
2023-03-04T06:05:32.141Z,98630.06
2023-03-04T06:08:44.207Z,98639.66
2023-03-04T06:11:56.075Z,98636.48
2023-03-04T06:15:10.126Z,98641.70
2023-03-04T06:18:22.142Z,98639.86
2023-03-04T06:21:34.121Z,98645.08
2023-03-04T06:24:46.274Z,98639.67
2023-03-04T06:27:58.657Z,98643.38
2023-03-04T06:31:10.960Z,98639.86
2023-03-04T06:34:23.290Z,98655.67
2023-03-04T06:37:35.327Z,98659.89
2023-03-04T06:40:47.366Z,98650.13
2023-03-04T06:44:01.700Z,98651.91
2023-03-04T06:47:14.152Z,98646.60
2023-03-04T06:50:26.458Z,98658.89
2023-03-04T06:53:38.601Z,98648.59
2023-03-04T06:56:50.601Z,98643.55
2023-03-04T07:00:03.491Z,98655.31
2023-03-04T07:03:17.221Z,98645.88
2023-03-04T07:06:31.558Z,98653.70
2023-03-04T07:09:43.725Z,98654.29
2023-03-04T07:12:56.090Z,98650.06
2023-03-04T07:16:09.538Z,98656.81
2023-03-04T07:19:21.976Z,98667.42
2023-03-04T07:22:34.112Z,98660.36
2023-03-04T07:25:46.294Z,98665.80
2023-03-04T07:28:59.925Z,98668.02
2023-03-04T07:32:11.062Z,98677.78
2023-03-04T07:35:24.003Z,98683.36
2023-03-04T07:38:36.489Z,98679.66
2023-03-04T07:41:49.010Z,98683.80
2023-03-04T07:45:02.107Z,98686.14
2023-03-04T07:51:16.832Z,98685.97
2023-03-04T07:54:28.986Z,98679.48
2023-03-04T07:57:41.074Z,98692.39
2023-03-04T08:00:48.802Z,98688.61
2023-03-04T08:04:02.585Z,98699.82
2023-03-04T08:07:14.769Z,98695.86
2023-03-04T08:10:26.902Z,98704.83
2023-03-04T08:13:38.912Z,98696.94
2023-03-04T08:16:50.834Z,98695.01
2023-03-04T08:20:02.803Z,98697.41
2023-03-04T08:23:14.848Z,98702.56
2023-03-04T08:29:35.898Z,98701.45
2023-03-04T08:32:43.778Z,98709.59
2023-03-04T08:35:56.031Z,98709.67
2023-03-04T08:39:08.280Z,98711.88
2023-03-04T08:42:20.321Z,98704.51
2023-03-04T08:45:32.344Z,98712.20
2023-03-04T08:48:45.026Z,98707.56
2023-03-04T08:51:56.976Z,98703.87
2023-03-04T08:55:10.011Z,98707.24
2023-03-04T08:58:22.176Z,98710.47
2023-03-04T09:01:34.426Z,98710.91
2023-03-04T09:04:46.757Z,98702.75
2023-03-04T09:07:58.636Z,98712.88
2023-03-04T09:11:07.344Z,98703.33
2023-03-04T09:14:19.353Z,98708.41
2023-03-04T09:17:31.630Z,98706.56
2023-03-04T09:20:43.701Z,98708.08
2023-03-04T09:23:58.560Z,98719.95
2023-03-04T09:27:10.553Z,98726.17
2023-03-04T09:30:23.944Z,98724.41
2023-03-04T09:33:36.098Z,98714.88
2023-03-04T09:36:48.117Z,98711.17
2023-03-04T09:40:00.034Z,98708.80
2023-03-04T09:49:36.820Z,98715.05
2023-03-04T09:52:58.878Z,98706.77
2023-03-04T09:56:11.969Z,98696.15
2023-03-04T09:59:31.494Z,98694.73
2023-03-04T10:02:51.654Z,98696.16
2023-03-04T10:09:21.103Z,98682.86
2023-03-04T10:12:32.987Z,98686.41
2023-03-04T10:15:51.116Z,98685.33
2023-03-04T10:19:10.532Z,98677.64
2023-03-04T10:22:27.189Z,98681.34
2023-03-04T10:25:41.216Z,98681.77
2023-03-04T10:28:53.803Z,98687.09
2023-03-04T10:32:05.704Z,98684.38
2023-03-04T10:35:20.541Z,98680.67
2023-03-04T10:38:30.873Z,98674.59
2023-03-04T10:41:45.484Z,98675.02
2023-03-04T10:45:03.762Z,98673.27
2023-03-04T10:51:35.279Z,98656.82
2023-03-04T10:54:49.057Z,98650.84
2023-03-04T10:58:05.334Z,98657.73
2023-03-04T11:01:17.858Z,98650.50
2023-03-04T11:04:32.235Z,98645.84
2023-03-04T11:07:55.855Z,98644.74
2023-03-04T11:11:03.201Z,98638.16
2023-03-04T11:14:21.577Z,98640.69
2023-03-04T11:17:37.817Z,98637.91
2023-03-04T11:20:52.827Z,98636.81
2023-03-04T11:27:19.655Z,98630.73
2023-03-04T11:30:42.008Z,98618.50
2023-03-04T11:33:56.026Z,98624.17
2023-03-04T11:37:10.352Z,98629.03
2023-03-04T11:43:34.791Z,98598.30
2023-03-04T11:47:07.985Z,98602.02
2023-03-04T11:50:44.564Z,98596.08
2023-03-04T11:54:13.793Z,98588.98
2023-03-04T11:57:30.871Z,98578.22
2023-03-04T12:00:48.263Z,98572.23
2023-03-04T12:04:10.374Z,98577.41
2023-03-04T12:10:49.235Z,98569.09
2023-03-04T12:18:12.537Z,98566.02
2023-03-04T12:21:37.665Z,98564.35
2023-03-04T12:25:30.771Z,98560.98
2023-03-04T12:28:57.758Z,98560.68
2023-03-04T12:32:18.544Z,98557.31
2023-03-04T12:35:45.566Z,98577.13
2023-03-04T12:39:16.431Z,98568.17
2023-03-04T12:42:33.347Z,98565.38
2023-03-04T12:49:18.620Z,98570.41
2023-03-04T12:52:41.662Z,98559.03
2023-03-04T12:55:55.862Z,98554.34
2023-03-04T12:59:09.109Z,98573.24
2023-03-04T13:02:56.501Z,98547.98
2023-03-04T13:06:36.029Z,98540.23
2023-03-04T13:09:54.733Z,98546.69
2023-03-04T13:13:08.536Z,98541.08
2023-03-04T13:16:43.007Z,98525.38
2023-03-04T13:20:05.208Z,98530.13
2023-03-04T13:23:33.536Z,98528.80
2023-03-04T13:26:41.906Z,98522.53
2023-03-04T13:29:54.374Z,98511.10
2023-03-04T13:33:25.930Z,98515.03
2023-03-04T13:37:03.665Z,98516.70
2023-03-04T13:40:42.330Z,98504.52
2023-03-04T13:43:56.072Z,98505.69
2023-03-04T13:47:20.514Z,98505.80
2023-03-04T13:50:45.073Z,98514.97
2023-03-04T13:53:59.474Z,98513.09
2023-03-04T13:57:26.286Z,98499.24
2023-03-04T14:00:38.682Z,98502.61
2023-03-04T14:03:50.920Z,98487.45
2023-03-04T14:07:06.448Z,98500.73
2023-03-04T14:10:30.337Z,98497.15
2023-03-04T14:13:43.525Z,98486.03
2023-03-04T14:20:06.039Z,98485.08
2023-03-04T14:23:33.330Z,98486.88
2023-03-04T14:26:45.502Z,98487.70
2023-03-04T14:30:06.025Z,98486.03
2023-03-04T14:33:26.003Z,98486.22
2023-03-04T14:36:42.121Z,98495.88
2023-03-04T14:39:58.489Z,98492.30
2023-03-04T14:43:12.183Z,98498.28
2023-03-04T14:46:26.039Z,98494.82
2023-03-04T14:49:38.887Z,98496.63
2023-03-04T14:52:49.221Z,98491.38
2023-03-04T14:56:07.207Z,98485.40
2023-03-04T14:59:20.936Z,98494.00
2023-03-04T15:02:40.301Z,98484.27
2023-03-04T15:05:53.012Z,98487.70
2023-03-04T15:12:17.453Z,98480.50
2023-03-04T15:15:51.083Z,98470.55
2023-03-04T15:19:06.289Z,98459.21
2023-03-04T15:22:18.210Z,98467.00
2023-03-04T15:25:31.110Z,98473.72
2023-03-04T15:28:45.723Z,98463.98
2023-03-04T15:31:57.648Z,98471.63
2023-03-04T15:35:11.009Z,98462.80
2023-03-04T15:38:23.214Z,98476.65
2023-03-04T15:41:35.168Z,98465.34
2023-03-04T15:44:47.382Z,98464.28
2023-03-04T15:47:55.721Z,98477.94
2023-03-04T15:51:11.346Z,98470.81
2023-03-04T15:54:19.188Z,98467.23
2023-03-04T15:57:33.440Z,98476.58
2023-03-04T16:00:45.432Z,98459.70
2023-03-04T16:03:58.069Z,98466.64
2023-03-04T16:07:05.883Z,98470.19
2023-03-04T16:10:21.161Z,98470.00
2023-03-04T16:13:33.253Z,98466.42
2023-03-04T16:16:47.104Z,98456.67
2023-03-04T16:19:59.136Z,98458.48
2023-03-04T16:23:13.854Z,98447.14
2023-03-04T16:29:33.631Z,98459.11
2023-03-04T16:32:41.470Z,98466.86
2023-03-04T16:35:54.301Z,98456.26
2023-03-04T16:39:13.041Z,98464.13
2023-03-04T16:42:27.385Z,98467.59
2023-03-04T16:45:40.234Z,98460.58
2023-03-04T16:48:52.773Z,98471.07
2023-03-04T16:52:05.054Z,98468.34
2023-03-04T16:55:24.697Z,98464.75
2023-03-04T16:58:37.257Z,98469.19
2023-03-04T17:01:49.994Z,98476.09
2023-03-04T17:05:02.040Z,98476.94
2023-03-04T17:08:14.051Z,98470.84
2023-03-04T17:11:28.242Z,98479.67
2023-03-04T17:14:41.238Z,98477.05
2023-03-04T17:17:53.749Z,98479.67
2023-03-04T17:21:13.211Z,98485.73
2023-03-04T17:24:21.021Z,98481.34
2023-03-04T17:27:33.012Z,98474.42
2023-03-04T17:30:41.560Z,98466.34
2023-03-04T17:33:54.484Z,98462.05
2023-03-04T17:37:06.569Z,98449.86
2023-03-04T17:43:27.193Z,98461.20
2023-03-04T17:46:39.516Z,98459.43
2023-03-04T17:49:51.491Z,98449.86
2023-03-04T17:53:03.458Z,98458.47
2023-03-04T17:56:17.366Z,98451.45
2023-03-04T17:59:30.352Z,98452.19
2023-03-04T18:02:42.688Z,98433.09
2023-03-04T18:05:54.881Z,98452.19
2023-03-04T18:09:07.064Z,98453.03
2023-03-04T18:12:19.659Z,98453.66
2023-03-04T18:15:31.770Z,98459.83
2023-03-04T18:18:44.418Z,98458.05
2023-03-04T18:21:56.389Z,98458.05
2023-03-04T18:25:11.030Z,98450.81
2023-03-04T18:28:23.141Z,98454.28
2023-03-04T18:31:37.133Z,98446.73
2023-03-04T18:34:49.185Z,98454.48
2023-03-04T18:38:01.390Z,98452.94
2023-03-04T18:44:21.791Z,98435.61
2023-03-04T18:47:34.574Z,98414.63
2023-03-04T18:50:46.575Z,98412.93
2023-03-04T18:53:58.650Z,98402.66
2023-03-04T18:57:16.629Z,98394.06
2023-03-04T19:00:30.464Z,98378.32
2023-03-04T19:03:44.603Z,98399.30
2023-03-04T19:06:52.596Z,98429.01
2023-03-04T19:13:05.475Z,98448.30
2023-03-04T19:19:18.068Z,98446.41
2023-03-04T19:22:30.243Z,98439.50
2023-03-04T19:25:43.435Z,98440.43
2023-03-04T19:28:55.498Z,98435.92
2023-03-04T19:32:07.640Z,98435.92
2023-03-04T19:35:19.713Z,98442.02
2023-03-04T19:38:31.797Z,98432.37
2023-03-04T19:41:40.029Z,98448.11
2023-03-04T19:44:52.050Z,98448.11
2023-03-04T19:47:59.817Z,98454.09
2023-03-04T19:51:19.778Z,98453.98
2023-03-04T19:54:31.889Z,98451.77
2023-03-04T19:57:44.595Z,98457.34
2023-03-04T20:00:58.025Z,98458.92
2023-03-04T20:04:14.481Z,98458.69
2023-03-04T20:07:26.476Z,98466.68
2023-03-04T20:10:44.736Z,98466.56
2023-03-04T20:16:58.736Z,98464.79
2023-03-04T20:20:14.439Z,98474.33
2023-03-04T20:23:29.185Z,98467.30
2023-03-04T20:26:40.617Z,98468.97
2023-03-04T20:29:53.461Z,98463.72
2023-03-04T20:33:01.143Z,98468.97
2023-03-04T20:36:09.895Z,98463.72
2023-03-04T20:39:29.097Z,98469.81
2023-03-04T20:42:36.200Z,98469.81
2023-03-04T20:45:48.340Z,98468.97
2023-03-04T20:49:01.074Z,98472.55
2023-03-04T20:52:14.541Z,98467.30
2023-03-04T20:55:28.072Z,98487.45
2023-03-04T20:58:40.801Z,98490.89
2023-03-04T21:05:19.840Z,98481.64
2023-03-04T21:08:31.904Z,98484.38
2023-03-04T21:11:44.776Z,98486.25
2023-03-04T21:14:56.824Z,98481.08
2023-03-04T21:18:09.334Z,98488.47
2023-03-04T21:21:26.170Z,98479.13
2023-03-04T21:24:40.365Z,98490.24
2023-03-04T21:27:52.368Z,98481.42
2023-03-04T21:34:13.519Z,98494.12
2023-03-04T21:37:26.328Z,98500.98
2023-03-04T21:40:39.410Z,98498.05
2023-03-04T21:43:52.239Z,98494.53
2023-03-04T21:47:05.521Z,98503.74
2023-03-04T21:50:18.779Z,98505.80
2023-03-04T21:53:30.815Z,98506.19
2023-03-04T21:59:49.761Z,98504.17
2023-03-04T22:03:01.763Z,98509.23
2023-03-04T22:06:17.346Z,98501.86
2023-03-04T22:09:29.494Z,98498.88
2023-03-04T22:12:42.074Z,98501.42
2023-03-04T22:15:54.373Z,98497.96
2023-03-04T22:19:07.029Z,98495.34
2023-03-04T22:22:19.910Z,98487.59
2023-03-04T22:25:32.399Z,98489.80
2023-03-04T22:28:45.075Z,98493.16
2023-03-04T22:31:57.124Z,98493.72
2023-03-04T22:35:10.468Z,98499.88
2023-03-04T22:38:22.839Z,98491.95
2023-03-04T22:41:34.849Z,98494.47
2023-03-04T22:44:46.880Z,98497.83
2023-03-04T22:48:00.523Z,98490.15
2023-03-04T22:51:15.183Z,98498.86
2023-03-04T22:54:28.070Z,98498.75
2023-03-04T22:57:40.008Z,98500.63
2023-03-04T23:00:52.179Z,98509.55
2023-03-04T23:04:05.043Z,98511.31
2023-03-04T23:07:17.119Z,98499.88
2023-03-04T23:10:31.137Z,98505.33
2023-03-04T23:13:43.770Z,98501.02
2023-03-04T23:16:56.146Z,98511.48
2023-03-04T23:20:08.644Z,98515.80
2023-03-04T23:23:20.888Z,98506.99
2023-03-04T23:26:36.470Z,98517.58
2023-03-04T23:29:48.542Z,98525.33
2023-03-04T23:33:00.544Z,98521.04
2023-03-04T23:36:15.256Z,98529.64
2023-03-04T23:39:27.776Z,98524.41
2023-03-04T23:42:39.712Z,98523.45
2023-03-04T23:48:58.447Z,98528.90
2023-03-04T23:52:11.216Z,98521.89
2023-03-04T23:55:25.639Z,98522.53
2023-03-04T23:58:37.517Z,98512.23
